sensor_id;sensor_type;location;lat;lon;timestamp;P1;durP1;ratioP1;P2;durP2;ratioP2
54464;SDS011;40374;49.480;20.016;2023-02-10T00:01:37;495.40;;;146.93;;
54464;SDS011;40374;49.480;20.016;2023-02-10T00:04:04;486.85;;;149.55;;
54464;SDS011;40374;49.480;20.016;2023-02-10T00:06:32;491.02;;;156.00;;
54464;SDS011;40374;49.480;20.016;2023-02-10T00:09:00;489.95;;;150.65;;
54464;SDS011;40374;49.480;20.016;2023-02-10T00:11:30;494.77;;;135.75;;
54464;SDS011;40374;49.480;20.016;2023-02-10T00:16:44;323.88;;;106.43;;
54464;SDS011;40374;49.480;20.016;2023-02-10T00:19:12;373.92;;;116.68;;
54464;SDS011;40374;49.480;20.016;2023-02-10T00:21:39;402.75;;;134.77;;
54464;SDS011;40374;49.480;20.016;2023-02-10T00:24:07;490.83;;;151.52;;
54464;SDS011;40374;49.480;20.016;2023-02-10T00:26:34;534.78;;;165.70;;
54464;SDS011;40374;49.480;20.016;2023-02-10T00:29:01;494.42;;;152.57;;
54464;SDS011;40374;49.480;20.016;2023-02-10T00:31:29;415.73;;;133.73;;
54464;SDS011;40374;49.480;20.016;2023-02-10T00:33:57;448.50;;;125.25;;
54464;SDS011;40374;49.480;20.016;2023-02-10T00:36:26;375.67;;;114.38;;
54464;SDS011;40374;49.480;20.016;2023-02-10T00:38:54;255.10;;;91.50;;
54464;SDS011;40374;49.480;20.016;2023-02-10T00:41:22;544.40;;;177.07;;
54464;SDS011;40374;49.480;20.016;2023-02-10T00:43:50;483.67;;;150.52;;
54464;SDS011;40374;49.480;20.016;2023-02-10T00:46:18;522.47;;;163.38;;
54464;SDS011;40374;49.480;20.016;2023-02-10T00:48:47;493.50;;;170.57;;
54464;SDS011;40374;49.480;20.016;2023-02-10T00:51:16;445.40;;;144.05;;
54464;SDS011;40374;49.480;20.016;2023-02-10T00:53:43;465.05;;;139.02;;
54464;SDS011;40374;49.480;20.016;2023-02-10T00:56:11;247.43;;;82.65;;
54464;SDS011;40374;49.480;20.016;2023-02-10T00:58:38;421.00;;;145.43;;
54464;SDS011;40374;49.480;20.016;2023-02-10T01:01:08;456.65;;;141.93;;
54464;SDS011;40374;49.480;20.016;2023-02-10T01:03:36;425.20;;;135.73;;
54464;SDS011;40374;49.480;20.016;2023-02-10T01:06:04;407.98;;;128.75;;
54464;SDS011;40374;49.480;20.016;2023-02-10T01:08:34;402.75;;;123.72;;
54464;SDS011;40374;49.480;20.016;2023-02-10T01:11:02;554.67;;;181.07;;
54464;SDS011;40374;49.480;20.016;2023-02-10T01:13:34;412.23;;;129.32;;
54464;SDS011;40374;49.480;20.016;2023-02-10T01:16:07;324.55;;;108.85;;
54464;SDS011;40374;49.480;20.016;2023-02-10T01:18:40;408.38;;;125.90;;
54464;SDS011;40374;49.480;20.016;2023-02-10T01:21:09;402.23;;;123.97;;
54464;SDS011;40374;49.480;20.016;2023-02-10T01:23:39;391.80;;;118.20;;
54464;SDS011;40374;49.480;20.016;2023-02-10T01:26:07;421.50;;;132.65;;
54464;SDS011;40374;49.480;20.016;2023-02-10T01:28:36;382.90;;;123.13;;
54464;SDS011;40374;49.480;20.016;2023-02-10T01:31:05;364.08;;;117.85;;
54464;SDS011;40374;49.480;20.016;2023-02-10T01:33:37;431.00;;;142.40;;
54464;SDS011;40374;49.480;20.016;2023-02-10T01:36:06;387.13;;;113.20;;
54464;SDS011;40374;49.480;20.016;2023-02-10T01:38:35;307.13;;;99.88;;
54464;SDS011;40374;49.480;20.016;2023-02-10T01:41:03;366.08;;;119.55;;
54464;SDS011;40374;49.480;20.016;2023-02-10T01:43:32;401.65;;;126.57;;
54464;SDS011;40374;49.480;20.016;2023-02-10T01:46:01;283.83;;;93.38;;
54464;SDS011;40374;49.480;20.016;2023-02-10T01:48:28;392.75;;;120.13;;
54464;SDS011;40374;49.480;20.016;2023-02-10T01:51:03;490.02;;;159.10;;
54464;SDS011;40374;49.480;20.016;2023-02-10T01:53:33;379.50;;;121.53;;
54464;SDS011;40374;49.480;20.016;2023-02-10T01:56:01;355.63;;;109.63;;
54464;SDS011;40374;49.480;20.016;2023-02-10T01:58:30;473.95;;;162.48;;
54464;SDS011;40374;49.480;20.016;2023-02-10T02:01:00;345.88;;;109.93;;
54464;SDS011;40374;49.480;20.016;2023-02-10T02:03:27;323.25;;;99.35;;
54464;SDS011;40374;49.480;20.016;2023-02-10T02:05:56;295.30;;;91.50;;
54464;SDS011;40374;49.480;20.016;2023-02-10T02:08:24;394.58;;;113.57;;
54464;SDS011;40374;49.480;20.016;2023-02-10T02:27:28;331.33;;;103.25;;
54464;SDS011;40374;49.480;20.016;2023-02-10T02:33:13;353.50;;;105.55;;
54464;SDS011;40374;49.480;20.016;2023-02-10T02:35:49;327.27;;;95.63;;
54464;SDS011;40374;49.480;20.016;2023-02-10T02:38:25;226.95;;;72.60;;
54464;SDS011;40374;49.480;20.016;2023-02-10T02:40:52;326.10;;;94.35;;
54464;SDS011;40374;49.480;20.016;2023-02-10T02:43:20;316.00;;;103.72;;
54464;SDS011;40374;49.480;20.016;2023-02-10T02:53:55;309.17;;;96.93;;
54464;SDS011;40374;49.480;20.016;2023-02-10T03:02:00;251.75;;;82.40;;
54464;SDS011;40374;49.480;20.016;2023-02-10T03:04:31;260.67;;;84.93;;
54464;SDS011;40374;49.480;20.016;2023-02-10T03:07:03;266.05;;;88.78;;
54464;SDS011;40374;49.480;20.016;2023-02-10T03:09:31;218.95;;;70.97;;
54464;SDS011;40374;49.480;20.016;2023-02-10T03:11:59;331.08;;;92.90;;
54464;SDS011;40374;49.480;20.016;2023-02-10T03:14:27;273.05;;;85.82;;
54464;SDS011;40374;49.480;20.016;2023-02-10T03:16:54;311.63;;;89.32;;
54464;SDS011;40374;49.480;20.016;2023-02-10T03:19:21;278.52;;;81.55;;
54464;SDS011;40374;49.480;20.016;2023-02-10T03:21:49;277.98;;;90.32;;
54464;SDS011;40374;49.480;20.016;2023-02-10T03:24:16;236.52;;;79.85;;
54464;SDS011;40374;49.480;20.016;2023-02-10T03:26:44;366.77;;;110.63;;
54464;SDS011;40374;49.480;20.016;2023-02-10T03:29:12;320.27;;;91.22;;
54464;SDS011;40374;49.480;20.016;2023-02-10T03:31:40;149.65;;;51.47;;
54464;SDS011;40374;49.480;20.016;2023-02-10T03:34:08;241.00;;;82.72;;
54464;SDS011;40374;49.480;20.016;2023-02-10T03:36:35;246.88;;;74.35;;
54464;SDS011;40374;49.480;20.016;2023-02-10T03:39:03;290.40;;;84.55;;
54464;SDS011;40374;49.480;20.016;2023-02-10T03:41:31;327.70;;;101.70;;
54464;SDS011;40374;49.480;20.016;2023-02-10T03:43:58;260.35;;;81.57;;
54464;SDS011;40374;49.480;20.016;2023-02-10T03:46:25;285.20;;;88.50;;
54464;SDS011;40374;49.480;20.016;2023-02-10T03:48:53;245.55;;;78.60;;
54464;SDS011;40374;49.480;20.016;2023-02-10T03:51:20;158.63;;;53.83;;
54464;SDS011;40374;49.480;20.016;2023-02-10T03:53:48;242.68;;;75.18;;
54464;SDS011;40374;49.480;20.016;2023-02-10T03:56:15;319.00;;;96.07;;
54464;SDS011;40374;49.480;20.016;2023-02-10T03:58:43;253.45;;;82.57;;
54464;SDS011;40374;49.480;20.016;2023-02-10T04:01:11;234.13;;;74.65;;
54464;SDS011;40374;49.480;20.016;2023-02-10T04:03:40;300.95;;;88.10;;
54464;SDS011;40374;49.480;20.016;2023-02-10T04:06:08;368.90;;;111.00;;
54464;SDS011;40374;49.480;20.016;2023-02-10T04:08:36;164.13;;;60.88;;
54464;SDS011;40374;49.480;20.016;2023-02-10T04:11:04;400.60;;;139.45;;
54464;SDS011;40374;49.480;20.016;2023-02-10T04:13:33;267.33;;;87.60;;
54464;SDS011;40374;49.480;20.016;2023-02-10T04:16:04;283.85;;;86.25;;
54464;SDS011;40374;49.480;20.016;2023-02-10T04:18:34;273.63;;;81.15;;
54464;SDS011;40374;49.480;20.016;2023-02-10T04:21:02;317.08;;;100.95;;
54464;SDS011;40374;49.480;20.016;2023-02-10T04:23:30;254.75;;;87.25;;
54464;SDS011;40374;49.480;20.016;2023-02-10T04:25:58;128.20;;;45.58;;
54464;SDS011;40374;49.480;20.016;2023-02-10T04:28:26;225.68;;;81.53;;
54464;SDS011;40374;49.480;20.016;2023-02-10T04:30:54;256.60;;;86.55;;
54464;SDS011;40374;49.480;20.016;2023-02-10T04:33:23;298.02;;;89.70;;
54464;SDS011;40374;49.480;20.016;2023-02-10T04:35:52;211.48;;;73.70;;
54464;SDS011;40374;49.480;20.016;2023-02-10T04:38:21;194.32;;;65.03;;
54464;SDS011;40374;49.480;20.016;2023-02-10T04:40:48;249.07;;;76.53;;
54464;SDS011;40374;49.480;20.016;2023-02-10T04:43:16;293.98;;;87.35;;
54464;SDS011;40374;49.480;20.016;2023-02-10T04:45:43;188.88;;;66.90;;
54464;SDS011;40374;49.480;20.016;2023-02-10T04:48:11;251.02;;;78.15;;
54464;SDS011;40374;49.480;20.016;2023-02-10T04:50:40;159.23;;;49.90;;
54464;SDS011;40374;49.480;20.016;2023-02-10T04:53:08;204.60;;;59.47;;
54464;SDS011;40374;49.480;20.016;2023-02-10T04:55:36;167.73;;;50.80;;
54464;SDS011;40374;49.480;20.016;2023-02-10T04:58:04;186.98;;;54.75;;
54464;SDS011;40374;49.480;20.016;2023-02-10T05:00:31;182.80;;;50.92;;
54464;SDS011;40374;49.480;20.016;2023-02-10T05:02:58;197.07;;;56.45;;
54464;SDS011;40374;49.480;20.016;2023-02-10T05:05:26;157.30;;;52.53;;
54464;SDS011;40374;49.480;20.016;2023-02-10T05:07:54;187.48;;;53.85;;
54464;SDS011;40374;49.480;20.016;2023-02-10T05:10:22;172.98;;;62.63;;
54464;SDS011;40374;49.480;20.016;2023-02-10T05:12:49;200.80;;;60.90;;
54464;SDS011;40374;49.480;20.016;2023-02-10T05:15:16;192.93;;;60.90;;
54464;SDS011;40374;49.480;20.016;2023-02-10T05:17:44;165.60;;;55.42;;
54464;SDS011;40374;49.480;20.016;2023-02-10T05:20:11;170.60;;;57.15;;
54464;SDS011;40374;49.480;20.016;2023-02-10T05:22:39;169.70;;;58.83;;
54464;SDS011;40374;49.480;20.016;2023-02-10T05:25:07;173.20;;;56.40;;
54464;SDS011;40374;49.480;20.016;2023-02-10T05:27:35;196.60;;;61.08;;
54464;SDS011;40374;49.480;20.016;2023-02-10T05:30:04;191.82;;;62.38;;
54464;SDS011;40374;49.480;20.016;2023-02-10T05:32:33;176.93;;;53.85;;
54464;SDS011;40374;49.480;20.016;2023-02-10T05:35:00;162.85;;;56.22;;
54464;SDS011;40374;49.480;20.016;2023-02-10T05:37:28;184.38;;;57.53;;
54464;SDS011;40374;49.480;20.016;2023-02-10T05:39:55;170.20;;;55.55;;
54464;SDS011;40374;49.480;20.016;2023-02-10T05:42:23;177.48;;;58.28;;
54464;SDS011;40374;49.480;20.016;2023-02-10T05:44:50;86.43;;;27.27;;
54464;SDS011;40374;49.480;20.016;2023-02-10T05:47:17;128.07;;;48.25;;
54464;SDS011;40374;49.480;20.016;2023-02-10T05:49:44;136.13;;;44.45;;
54464;SDS011;40374;49.480;20.016;2023-02-10T05:52:12;160.65;;;52.67;;
54464;SDS011;40374;49.480;20.016;2023-02-10T05:54:39;192.23;;;61.70;;
54464;SDS011;40374;49.480;20.016;2023-02-10T05:57:07;119.43;;;41.13;;
54464;SDS011;40374;49.480;20.016;2023-02-10T05:59:34;185.90;;;61.95;;
54464;SDS011;40374;49.480;20.016;2023-02-10T06:02:02;224.65;;;62.80;;
54464;SDS011;40374;49.480;20.016;2023-02-10T06:04:29;198.02;;;69.18;;
54464;SDS011;40374;49.480;20.016;2023-02-10T06:06:57;222.15;;;65.57;;
54464;SDS011;40374;49.480;20.016;2023-02-10T06:09:24;211.18;;;64.35;;
54464;SDS011;40374;49.480;20.016;2023-02-10T06:11:53;213.18;;;67.22;;
54464;SDS011;40374;49.480;20.016;2023-02-10T06:14:20;197.80;;;67.95;;
54464;SDS011;40374;49.480;20.016;2023-02-10T06:16:48;248.48;;;66.38;;
54464;SDS011;40374;49.480;20.016;2023-02-10T06:19:15;215.07;;;67.68;;
54464;SDS011;40374;49.480;20.016;2023-02-10T06:21:46;280.42;;;87.30;;
54464;SDS011;40374;49.480;20.016;2023-02-10T06:24:13;142.10;;;49.08;;
54464;SDS011;40374;49.480;20.016;2023-02-10T06:26:41;235.10;;;68.60;;
54464;SDS011;40374;49.480;20.016;2023-02-10T06:29:08;262.58;;;72.45;;
54464;SDS011;40374;49.480;20.016;2023-02-10T06:31:36;222.75;;;68.38;;
54464;SDS011;40374;49.480;20.016;2023-02-10T06:34:03;205.55;;;63.33;;
54464;SDS011;40374;49.480;20.016;2023-02-10T06:36:32;221.43;;;63.00;;
54464;SDS011;40374;49.480;20.016;2023-02-10T06:38:59;182.60;;;65.13;;
54464;SDS011;40374;49.480;20.016;2023-02-10T06:41:27;219.18;;;67.85;;
54464;SDS011;40374;49.480;20.016;2023-02-10T06:43:54;186.18;;;60.83;;
54464;SDS011;40374;49.480;20.016;2023-02-10T06:46:22;207.23;;;68.80;;
54464;SDS011;40374;49.480;20.016;2023-02-10T06:48:49;235.43;;;70.25;;
54464;SDS011;40374;49.480;20.016;2023-02-10T06:51:17;239.35;;;73.82;;
54464;SDS011;40374;49.480;20.016;2023-02-10T06:53:45;216.80;;;69.68;;
54464;SDS011;40374;49.480;20.016;2023-02-10T06:56:12;192.93;;;53.85;;
54464;SDS011;40374;49.480;20.016;2023-02-10T06:58:39;225.50;;;65.15;;
54464;SDS011;40374;49.480;20.016;2023-02-10T07:01:08;204.32;;;66.60;;
54464;SDS011;40374;49.480;20.016;2023-02-10T07:03:39;218.93;;;66.57;;
54464;SDS011;40374;49.480;20.016;2023-02-10T07:06:07;187.65;;;64.45;;
54464;SDS011;40374;49.480;20.016;2023-02-10T07:08:34;207.15;;;68.65;;
54464;SDS011;40374;49.480;20.016;2023-02-10T07:11:02;232.45;;;74.10;;
54464;SDS011;40374;49.480;20.016;2023-02-10T07:13:29;270.52;;;83.18;;
54464;SDS011;40374;49.480;20.016;2023-02-10T07:15:57;178.20;;;59.85;;
54464;SDS011;40374;49.480;20.016;2023-02-10T07:18:26;337.73;;;105.05;;
54464;SDS011;40374;49.480;20.016;2023-02-10T07:20:55;364.83;;;101.45;;
54464;SDS011;40374;49.480;20.016;2023-02-10T07:23:22;321.30;;;98.88;;
54464;SDS011;40374;49.480;20.016;2023-02-10T07:26:03;366.63;;;108.38;;
54464;SDS011;40374;49.480;20.016;2023-02-10T07:28:32;384.45;;;106.68;;
54464;SDS011;40374;49.480;20.016;2023-02-10T07:31:00;408.48;;;125.10;;
54464;SDS011;40374;49.480;20.016;2023-02-10T07:33:28;361.05;;;109.63;;
54464;SDS011;40374;49.480;20.016;2023-02-10T07:35:58;383.50;;;115.07;;
54464;SDS011;40374;49.480;20.016;2023-02-10T07:38:27;414.70;;;129.95;;
54464;SDS011;40374;49.480;20.016;2023-02-10T07:40:55;394.33;;;125.68;;
54464;SDS011;40374;49.480;20.016;2023-02-10T07:43:23;355.42;;;105.80;;
54464;SDS011;40374;49.480;20.016;2023-02-10T07:46:08;309.63;;;90.78;;
54464;SDS011;40374;49.480;20.016;2023-02-10T07:48:36;209.05;;;71.20;;
54464;SDS011;40374;49.480;20.016;2023-02-10T07:51:03;185.82;;;63.60;;
54464;SDS011;40374;49.480;20.016;2023-02-10T07:53:31;203.02;;;68.05;;
54464;SDS011;40374;49.480;20.016;2023-02-10T07:55:59;190.93;;;63.30;;
54464;SDS011;40374;49.480;20.016;2023-02-10T07:58:26;375.05;;;110.68;;
54464;SDS011;40374;49.480;20.016;2023-02-10T08:00:54;348.63;;;100.93;;
54464;SDS011;40374;49.480;20.016;2023-02-10T08:03:21;362.75;;;111.00;;
54464;SDS011;40374;49.480;20.016;2023-02-10T08:05:49;309.08;;;98.38;;
54464;SDS011;40374;49.480;20.016;2023-02-10T08:08:16;324.58;;;102.07;;
54464;SDS011;40374;49.480;20.016;2023-02-10T08:10:44;307.95;;;97.88;;
54464;SDS011;40374;49.480;20.016;2023-02-10T08:13:12;308.92;;;106.35;;
54464;SDS011;40374;49.480;20.016;2023-02-10T08:15:40;304.73;;;99.30;;
54464;SDS011;40374;49.480;20.016;2023-02-10T08:18:07;314.45;;;113.20;;
54464;SDS011;40374;49.480;20.016;2023-02-10T08:20:35;324.27;;;113.07;;
54464;SDS011;40374;49.480;20.016;2023-02-10T08:23:02;326.48;;;112.72;;
54464;SDS011;40374;49.480;20.016;2023-02-10T08:25:30;312.70;;;109.13;;
54464;SDS011;40374;49.480;20.016;2023-02-10T08:27:58;331.30;;;116.93;;
54464;SDS011;40374;49.480;20.016;2023-02-10T08:30:26;365.95;;;123.28;;
54464;SDS011;40374;49.480;20.016;2023-02-10T08:32:53;364.52;;;126.88;;
54464;SDS011;40374;49.480;20.016;2023-02-10T08:35:20;319.35;;;112.38;;
54464;SDS011;40374;49.480;20.016;2023-02-10T08:37:48;330.52;;;116.10;;
54464;SDS011;40374;49.480;20.016;2023-02-10T08:40:15;301.65;;;108.28;;
54464;SDS011;40374;49.480;20.016;2023-02-10T08:42:43;338.00;;;119.18;;
54464;SDS011;40374;49.480;20.016;2023-02-10T08:45:11;310.83;;;105.82;;
54464;SDS011;40374;49.480;20.016;2023-02-10T08:47:38;319.75;;;116.28;;
54464;SDS011;40374;49.480;20.016;2023-02-10T08:50:07;276.33;;;101.63;;
54464;SDS011;40374;49.480;20.016;2023-02-10T08:52:35;380.27;;;137.98;;
54464;SDS011;40374;49.480;20.016;2023-02-10T08:55:02;358.98;;;128.68;;
54464;SDS011;40374;49.480;20.016;2023-02-10T08:57:30;420.08;;;146.73;;
54464;SDS011;40374;49.480;20.016;2023-02-10T08:59:57;368.88;;;138.13;;
54464;SDS011;40374;49.480;20.016;2023-02-10T09:02:25;357.15;;;136.27;;
54464;SDS011;40374;49.480;20.016;2023-02-10T09:04:53;347.73;;;130.25;;
54464;SDS011;40374;49.480;20.016;2023-02-10T09:07:36;356.67;;;138.07;;
54464;SDS011;40374;49.480;20.016;2023-02-10T09:10:04;352.52;;;136.52;;
54464;SDS011;40374;49.480;20.016;2023-02-10T09:12:32;324.85;;;127.30;;
54464;SDS011;40374;49.480;20.016;2023-02-10T09:14:59;325.27;;;127.88;;
54464;SDS011;40374;49.480;20.016;2023-02-10T09:17:27;327.00;;;124.50;;
54464;SDS011;40374;49.480;20.016;2023-02-10T09:19:54;316.65;;;120.90;;
54464;SDS011;40374;49.480;20.016;2023-02-10T09:22:22;354.80;;;132.65;;
54464;SDS011;40374;49.480;20.016;2023-02-10T09:24:49;298.77;;;121.95;;
54464;SDS011;40374;49.480;20.016;2023-02-10T09:27:19;295.63;;;115.53;;
54464;SDS011;40374;49.480;20.016;2023-02-10T09:29:48;306.95;;;120.32;;
54464;SDS011;40374;49.480;20.016;2023-02-10T09:32:16;297.15;;;118.25;;
54464;SDS011;40374;49.480;20.016;2023-02-10T09:34:43;283.90;;;112.82;;
54464;SDS011;40374;49.480;20.016;2023-02-10T09:37:12;245.02;;;96.07;;
54464;SDS011;40374;49.480;20.016;2023-02-10T09:39:40;213.80;;;88.05;;
54464;SDS011;40374;49.480;20.016;2023-02-10T09:42:20;213.68;;;87.03;;
54464;SDS011;40374;49.480;20.016;2023-02-10T09:44:55;208.65;;;87.30;;
54464;SDS011;40374;49.480;20.016;2023-02-10T09:50:39;226.50;;;96.20;;
54464;SDS011;40374;49.480;20.016;2023-02-10T09:53:36;247.05;;;101.10;;
54464;SDS011;40374;49.480;20.016;2023-02-10T09:56:05;229.60;;;94.05;;
54464;SDS011;40374;49.480;20.016;2023-02-10T09:58:36;234.40;;;96.60;;
54464;SDS011;40374;49.480;20.016;2023-02-10T10:03:58;153.93;;;61.28;;
54464;SDS011;40374;49.480;20.016;2023-02-10T10:06:33;142.68;;;61.90;;
54464;SDS011;40374;49.480;20.016;2023-02-10T10:11:38;129.05;;;53.53;;
54464;SDS011;40374;49.480;20.016;2023-02-10T10:16:49;130.25;;;54.53;;
54464;SDS011;40374;49.480;20.016;2023-02-10T10:25:18;132.02;;;58.65;;
54464;SDS011;40374;49.480;20.016;2023-02-10T10:27:55;136.73;;;58.80;;
54464;SDS011;40374;49.480;20.016;2023-02-10T10:30:47;144.05;;;63.20;;
54464;SDS011;40374;49.480;20.016;2023-02-10T10:33:23;135.55;;;62.20;;
54464;SDS011;40374;49.480;20.016;2023-02-10T10:36:14;130.32;;;56.67;;
54464;SDS011;40374;49.480;20.016;2023-02-10T10:41:15;135.30;;;57.60;;
54464;SDS011;40374;49.480;20.016;2023-02-10T10:43:50;128.55;;;56.63;;
54464;SDS011;40374;49.480;20.016;2023-02-10T10:46:27;110.05;;;51.03;;
54464;SDS011;40374;49.480;20.016;2023-02-10T10:49:02;95.53;;;41.25;;
54464;SDS011;40374;49.480;20.016;2023-02-10T10:51:30;83.50;;;37.80;;
54464;SDS011;40374;49.480;20.016;2023-02-10T10:53:57;73.03;;;34.22;;
54464;SDS011;40374;49.480;20.016;2023-02-10T10:59:04;38.13;;;18.00;;
54464;SDS011;40374;49.480;20.016;2023-02-10T11:01:41;29.90;;;15.65;;
54464;SDS011;40374;49.480;20.016;2023-02-10T11:04:11;25.73;;;12.73;;
54464;SDS011;40374;49.480;20.016;2023-02-10T11:06:48;22.92;;;12.10;;
54464;SDS011;40374;49.480;20.016;2023-02-10T11:09:22;26.83;;;13.68;;
54464;SDS011;40374;49.480;20.016;2023-02-10T11:12:04;27.48;;;12.75;;
54464;SDS011;40374;49.480;20.016;2023-02-10T11:14:40;20.98;;;11.95;;
54464;SDS011;40374;49.480;20.016;2023-02-10T11:17:22;25.65;;;12.45;;
54464;SDS011;40374;49.480;20.016;2023-02-10T11:22:31;20.40;;;11.25;;
54464;SDS011;40374;49.480;20.016;2023-02-10T11:25:00;21.38;;;11.27;;
54464;SDS011;40374;49.480;20.016;2023-02-10T11:27:29;19.85;;;11.10;;
54464;SDS011;40374;49.480;20.016;2023-02-10T11:29:58;23.65;;;11.18;;
54464;SDS011;40374;49.480;20.016;2023-02-10T11:32:30;25.02;;;13.23;;
54464;SDS011;40374;49.480;20.016;2023-02-10T11:35:02;24.70;;;13.30;;
54464;SDS011;40374;49.480;20.016;2023-02-10T11:37:36;24.08;;;13.00;;
54464;SDS011;40374;49.480;20.016;2023-02-10T11:40:22;21.42;;;12.50;;
54464;SDS011;40374;49.480;20.016;2023-02-10T11:42:55;22.42;;;11.90;;
54464;SDS011;40374;49.480;20.016;2023-02-10T11:45:26;21.73;;;11.98;;
54464;SDS011;40374;49.480;20.016;2023-02-10T11:51:05;24.98;;;13.05;;
54464;SDS011;40374;49.480;20.016;2023-02-10T11:53:39;23.00;;;12.45;;
54464;SDS011;40374;49.480;20.016;2023-02-10T11:56:13;24.08;;;12.90;;
54464;SDS011;40374;49.480;20.016;2023-02-10T12:09:27;21.80;;;11.85;;
54464;SDS011;40374;49.480;20.016;2023-02-10T12:29:08;27.60;;;13.57;;
54464;SDS011;40374;49.480;20.016;2023-02-10T12:40:23;27.92;;;14.02;;
54464;SDS011;40374;49.480;20.016;2023-02-10T12:46:04;22.98;;;12.35;;
54464;SDS011;40374;49.480;20.016;2023-02-10T12:56:46;29.25;;;13.75;;
54464;SDS011;40374;49.480;20.016;2023-02-10T12:59:21;29.20;;;15.32;;
54464;SDS011;40374;49.480;20.016;2023-02-10T13:01:55;28.60;;;13.20;;
54464;SDS011;40374;49.480;20.016;2023-02-10T13:04:30;24.13;;;12.75;;
54464;SDS011;40374;49.480;20.016;2023-02-10T13:09:49;32.55;;;13.95;;
54464;SDS011;40374;49.480;20.016;2023-02-10T13:12:27;30.23;;;13.73;;
54464;SDS011;40374;49.480;20.016;2023-02-10T13:14:59;29.38;;;14.95;;
54464;SDS011;40374;49.480;20.016;2023-02-10T13:17:43;29.35;;;12.50;;
54464;SDS011;40374;49.480;20.016;2023-02-10T13:20:22;29.67;;;13.52;;
54464;SDS011;40374;49.480;20.016;2023-02-10T13:28:52;33.95;;;15.05;;
54464;SDS011;40374;49.480;20.016;2023-02-10T13:36:50;32.92;;;13.88;;
54464;SDS011;40374;49.480;20.016;2023-02-10T13:39:23;35.53;;;14.63;;
54464;SDS011;40374;49.480;20.016;2023-02-10T13:42:09;34.15;;;15.40;;
54464;SDS011;40374;49.480;20.016;2023-02-10T13:44:44;35.67;;;15.32;;
54464;SDS011;40374;49.480;20.016;2023-02-10T13:47:14;35.67;;;13.45;;
54464;SDS011;40374;49.480;20.016;2023-02-10T13:49:52;30.90;;;14.85;;
54464;SDS011;40374;49.480;20.016;2023-02-10T13:52:25;36.60;;;16.00;;
54464;SDS011;40374;49.480;20.016;2023-02-10T13:57:30;39.95;;;17.15;;
54464;SDS011;40374;49.480;20.016;2023-02-10T14:00:13;35.25;;;15.00;;
54464;SDS011;40374;49.480;20.016;2023-02-10T14:02:57;35.92;;;15.32;;
54464;SDS011;40374;49.480;20.016;2023-02-10T14:11:27;31.60;;;14.90;;
54464;SDS011;40374;49.480;20.016;2023-02-10T14:14:15;30.25;;;12.77;;
54464;SDS011;40374;49.480;20.016;2023-02-10T14:16:48;39.95;;;15.00;;
54464;SDS011;40374;49.480;20.016;2023-02-10T14:19:39;36.72;;;15.30;;
54464;SDS011;40374;49.480;20.016;2023-02-10T14:22:18;31.90;;;14.68;;
54464;SDS011;40374;49.480;20.016;2023-02-10T14:24:53;36.22;;;14.80;;
54464;SDS011;40374;49.480;20.016;2023-02-10T14:27:21;26.48;;;13.55;;
54464;SDS011;40374;49.480;20.016;2023-02-10T14:29:56;29.77;;;14.48;;
54464;SDS011;40374;49.480;20.016;2023-02-10T14:35:01;32.17;;;12.77;;
54464;SDS011;40374;49.480;20.016;2023-02-10T14:37:48;31.52;;;15.05;;
54464;SDS011;40374;49.480;20.016;2023-02-10T14:40:22;32.95;;;14.85;;
54464;SDS011;40374;49.480;20.016;2023-02-10T14:42:50;35.55;;;15.70;;
54464;SDS011;40374;49.480;20.016;2023-02-10T14:45:22;29.85;;;15.35;;
54464;SDS011;40374;49.480;20.016;2023-02-10T14:47:55;33.33;;;14.73;;
54464;SDS011;40374;49.480;20.016;2023-02-10T14:52:59;32.80;;;14.75;;
54464;SDS011;40374;49.480;20.016;2023-02-10T14:55:33;31.30;;;14.70;;
54464;SDS011;40374;49.480;20.016;2023-02-10T14:58:05;34.95;;;16.30;;
54464;SDS011;40374;49.480;20.016;2023-02-10T15:00:33;31.10;;;15.50;;
54464;SDS011;40374;49.480;20.016;2023-02-10T15:03:02;45.15;;;17.75;;
54464;SDS011;40374;49.480;20.016;2023-02-10T15:05:38;44.53;;;18.42;;
54464;SDS011;40374;49.480;20.016;2023-02-10T15:08:12;45.92;;;18.95;;
54464;SDS011;40374;49.480;20.016;2023-02-10T15:10:47;34.75;;;15.05;;
54464;SDS011;40374;49.480;20.016;2023-02-10T15:13:19;35.08;;;14.75;;
54464;SDS011;40374;49.480;20.016;2023-02-10T15:15:54;46.03;;;20.85;;
54464;SDS011;40374;49.480;20.016;2023-02-10T15:18:24;49.40;;;22.27;;
54464;SDS011;40374;49.480;20.016;2023-02-10T15:20:58;54.90;;;24.50;;
54464;SDS011;40374;49.480;20.016;2023-02-10T15:23:28;53.85;;;24.40;;
54464;SDS011;40374;49.480;20.016;2023-02-10T15:28:29;44.13;;;19.08;;
54464;SDS011;40374;49.480;20.016;2023-02-10T15:31:04;46.72;;;20.65;;
54464;SDS011;40374;49.480;20.016;2023-02-10T15:33:51;48.90;;;19.90;;
54464;SDS011;40374;49.480;20.016;2023-02-10T15:36:32;49.33;;;22.10;;
54464;SDS011;40374;49.480;20.016;2023-02-10T15:39:05;56.85;;;23.42;;
54464;SDS011;40374;49.480;20.016;2023-02-10T15:44:58;63.35;;;25.52;;
54464;SDS011;40374;49.480;20.016;2023-02-10T15:47:27;72.60;;;28.15;;
54464;SDS011;40374;49.480;20.016;2023-02-10T15:50:04;72.63;;;26.55;;
54464;SDS011;40374;49.480;20.016;2023-02-10T15:52:34;77.60;;;31.35;;
54464;SDS011;40374;49.480;20.016;2023-02-10T15:55:09;79.57;;;32.65;;
54464;SDS011;40374;49.480;20.016;2023-02-10T15:57:45;81.70;;;33.10;;
54464;SDS011;40374;49.480;20.016;2023-02-10T16:02:44;103.32;;;37.00;;
54464;SDS011;40374;49.480;20.016;2023-02-10T16:05:11;103.60;;;41.13;;
54464;SDS011;40374;49.480;20.016;2023-02-10T16:07:40;111.32;;;42.30;;
54464;SDS011;40374;49.480;20.016;2023-02-10T16:10:18;107.05;;;39.58;;
54464;SDS011;40374;49.480;20.016;2023-02-10T16:12:48;103.60;;;38.95;;
54464;SDS011;40374;49.480;20.016;2023-02-10T16:15:17;89.28;;;36.25;;
54464;SDS011;40374;49.480;20.016;2023-02-10T16:17:47;100.30;;;37.20;;
54464;SDS011;40374;49.480;20.016;2023-02-10T16:20:22;83.47;;;32.35;;
54464;SDS011;40374;49.480;20.016;2023-02-10T16:22:52;86.78;;;33.15;;
54464;SDS011;40374;49.480;20.016;2023-02-10T16:25:21;77.85;;;30.15;;
54464;SDS011;40374;49.480;20.016;2023-02-10T16:27:51;74.68;;;29.70;;
54464;SDS011;40374;49.480;20.016;2023-02-10T16:30:21;74.88;;;28.98;;
54464;SDS011;40374;49.480;20.016;2023-02-10T16:32:52;81.93;;;28.85;;
54464;SDS011;40374;49.480;20.016;2023-02-10T16:35:21;64.80;;;25.17;;
54464;SDS011;40374;49.480;20.016;2023-02-10T16:37:50;66.22;;;26.08;;
54464;SDS011;40374;49.480;20.016;2023-02-10T16:40:25;72.68;;;26.95;;
54464;SDS011;40374;49.480;20.016;2023-02-10T16:42:56;112.30;;;34.88;;